Time,TemperatureF,DewpointF,PressureIn,WindDirection,WindDirectionDegrees,WindSpeedMPH,WindSpeedGustMPH,Humidity,HourlyPrecipIn,Conditions,Clouds,dailyrainin,SoftwareType,DateUTC
2013-12-07 00:03:00,23.9,18.3,30.43,North,8,0.0,0.0,79,0.00,CLR,,0.00,WeatherDisplay:10.37,2013-12-07 06:03:00,
2013-12-07 00:08:00,23.9,18.3,30.43,North,8,0.0,0.0,79,0.00,CLR,,0.00,WeatherDisplay:10.37,2013-12-07 06:08:00,
2013-12-07 00:13:00,23.7,17.9,30.43,North,8,0.0,0.0,78,0.00,CLR,,0.00,WeatherDisplay:10.37,2013-12-07 06:13:00,
2013-12-07 00:18:00,23.9,18.0,30.43,North,8,0.0,0.0,78,0.00,CLR,,0.00,WeatherDisplay:10.37,2013-12-07 06:18:00,
2013-12-07 00:23:00,23.7,17.9,30.43,North,8,0.0,0.0,78,0.00,CLR,,0.00,WeatherDisplay:10.37,2013-12-07 06:23:00,
2013-12-07 00:28:00,23.9,18.0,30.43,North,8,0.0,0.0,78,0.00,CLR,,0.00,WeatherDisplay:10.37,2013-12-07 06:28:00,
2013-12-07 00:33:00,23.7,17.9,30.43,North,8,0.0,0.0,78,0.00,CLR,,0.00,WeatherDisplay:10.37,2013-12-07 06:33:00,
2013-12-07 00:38:00,23.9,18.0,30.43,North,8,0.0,0.0,78,0.00,CLR,,0.00,WeatherDisplay:10.37,2013-12-07 06:38:00,
2013-12-07 00:43:00,24.3,18.4,30.43,North,8,0.0,0.0,78,0.00,CLR,,0.00,WeatherDisplay:10.37,2013-12-07 06:43:00,
2013-12-07 00:48:00,24.3,18.4,30.43,North,8,0.0,0.0,78,0.00,CLR,,0.00,WeatherDisplay:10.37,2013-12-07 06:48:00,
2013-12-07 00:53:00,24.1,18.2,30.43,North,8,0.0,0.0,78,0.00,CLR,,0.00,WeatherDisplay:10.37,2013-12-07 06:53:00,
2013-12-07 01:01:00,24.1,18.2,30.43,North,8,0.0,0.0,78,0.00,CLR,,0.00,WeatherDisplay:10.37,2013-12-07 07:01:00,
2013-12-07 01:06:00,23.9,18.0,30.43,North,8,0.0,0.0,78,0.00,CLR,,0.00,WeatherDisplay:10.37,2013-12-07 07:06:00,
2013-12-07 01:11:00,23.5,17.4,30.43,North,8,0.0,0.0,77,0.00,CLR,,0.00,WeatherDisplay:10.37,2013-12-07 07:11:00,
2013-12-07 01:16:00,23.4,17.2,30.43,North,8,0.0,0.0,77,0.00,CLR,,0.00,WeatherDisplay:10.37,2013-12-07 07:16:00,
2013-12-07 01:21:00,23.4,17.2,30.43,North,8,0.0,0.0,77,0.00,CLR,,0.00,WeatherDisplay:10.37,2013-12-07 07:21:00,
2013-12-07 01:26:00,23.4,17.2,30.43,North,8,0.0,0.0,77,0.00,CLR,,0.00,WeatherDisplay:10.37,2013-12-07 07:26:00,
2013-12-07 01:31:00,23.4,17.2,30.43,North,8,0.0,0.0,77,0.00,CLR,,0.00,WeatherDisplay:10.37,2013-12-07 07:31:00,
2013-12-07 01:36:00,23.2,17.0,30.43,North,8,0.0,0.0,77,0.00,CLR,,0.00,WeatherDisplay:10.37,2013-12-07 07:36:00,
2013-12-07 01:41:00,23.0,16.9,30.43,North,8,0.0,0.0,77,0.00,CLR,,0.00,WeatherDisplay:10.37,2013-12-07 07:41:00,
2013-12-07 01:46:00,23.0,16.9,30.43,North,8,0.0,0.0,77,0.00,CLR,,0.00,WeatherDisplay:10.37,2013-12-07 07:46:00,
2013-12-07 01:51:00,22.8,16.4,30.43,North,8,0.0,0.0,76,0.00,CLR,,0.00,WeatherDisplay:10.37,2013-12-07 07:51:00,
2013-12-07 01:56:00,22.8,16.4,30.43,North,8,0.0,0.0,76,0.00,CLR,,0.00,WeatherDisplay:10.37,2013-12-07 07:56:00,
2013-12-07 02:01:00,22.5,15.7,30.43,North,8,0.0,0.0,75,0.00,CLR,,0.00,WeatherDisplay:10.37,2013-12-07 08:01:00,
2013-12-07 02:06:00,22.3,15.6,30.43,North,8,0.0,0.0,75,0.00,CLR,,0.00,WeatherDisplay:10.37,2013-12-07 08:06:00,
2013-12-07 02:11:00,22.3,15.2,30.43,North,8,0.0,0.0,74,0.00,CLR,,0.00,WeatherDisplay:10.37,2013-12-07 08:11:00,
2013-12-07 02:16:00,22.3,15.2,30.43,North,8,0.0,0.0,74,0.00,CLR,,0.00,WeatherDisplay:10.37,2013-12-07 08:16:00,
2013-12-07 02:21:00,21.9,14.6,30.43,North,8,0.0,0.0,73,0.00,CLR,,0.00,WeatherDisplay:10.37,2013-12-07 08:21:00,
2013-12-07 02:26:00,21.7,14.4,30.43,North,8,0.0,0.0,73,0.00,CLR,,0.00,WeatherDisplay:10.37,2013-12-07 08:26:00,
2013-12-07 02:31:00,21.2,13.6,30.43,North,8,0.0,0.0,72,0.00,CLR,,0.00,WeatherDisplay:10.37,2013-12-07 08:31:00,
2013-12-07 02:36:00,21.2,13.6,30.43,North,8,0.0,0.0,72,0.00,CLR,,0.00,WeatherDisplay:10.37,2013-12-07 08:36:00,
2013-12-07 02:41:00,20.7,13.1,30.43,North,8,0.0,0.0,72,0.00,CLR,,0.00,WeatherDisplay:10.37,2013-12-07 08:41:00,
2013-12-07 02:46:00,20.3,12.4,30.43,North,8,0.0,0.0,71,0.00,CLR,,0.00,WeatherDisplay:10.37,2013-12-07 08:46:00,
2013-12-07 02:51:00,19.9,12.0,30.43,North,8,0.0,0.0,71,0.00,CLR,,0.00,WeatherDisplay:10.37,2013-12-07 08:51:00,
2013-12-07 02:56:00,19.8,11.6,30.43,North,8,0.0,0.0,70,0.00,CLR,,0.00,WeatherDisplay:10.37,2013-12-07 08:56:00,
2013-12-07 03:01:00,19.6,11.4,30.43,North,8,0.0,0.0,70,0.00,CLR,,0.00,WeatherDisplay:10.37,2013-12-07 09:01:00,
2013-12-07 03:06:00,19.4,11.5,30.43,North,8,0.0,0.0,71,0.00,CLR,,0.00,WeatherDisplay:10.37,2013-12-07 09:06:00,
2013-12-07 03:11:00,19.2,11.0,30.43,North,8,0.0,0.0,70,0.00,CLR,,0.00,WeatherDisplay:10.37,2013-12-07 09:11:00,
2013-12-07 03:16:00,19.0,10.9,30.43,North,8,0.0,0.0,70,0.00,CLR,,0.00,WeatherDisplay:10.37,2013-12-07 09:16:00,
2013-12-07 03:21:00,18.9,10.7,30.43,North,8,0.0,0.0,70,0.00,CLR,,0.00,WeatherDisplay:10.37,2013-12-07 09:21:00,
2013-12-07 03:26:00,18.9,10.7,30.43,North,8,0.0,0.0,70,0.00,CLR,,0.00,WeatherDisplay:10.37,2013-12-07 09:26:00,
2013-12-07 03:31:00,19.0,10.9,30.43,North,8,0.0,0.0,70,0.00,CLR,,0.00,WeatherDisplay:10.37,2013-12-07 09:31:00,
2013-12-07 03:36:00,19.0,10.9,30.43,North,8,0.0,0.0,70,0.00,CLR,,0.00,WeatherDisplay:10.37,2013-12-07 09:36:00,
2013-12-07 03:41:00,19.0,11.2,30.43,North,8,0.0,0.0,71,0.00,CLR,,0.00,WeatherDisplay:10.37,2013-12-07 09:41:00,
2013-12-07 03:46:00,18.9,11.0,30.43,North,8,0.0,0.0,71,0.00,CLR,,0.00,WeatherDisplay:10.37,2013-12-07 09:46:00,
2013-12-07 03:51:00,18.7,10.8,30.43,North,8,0.0,0.0,71,0.00,CLR,,0.00,WeatherDisplay:10.37,2013-12-07 09:51:00,
2013-12-07 03:56:00,18.3,10.5,30.43,North,8,0.0,0.0,71,0.00,CLR,,0.00,WeatherDisplay:10.37,2013-12-07 09:56:00,
2013-12-07 04:01:00,18.0,9.8,30.43,North,8,0.0,0.0,70,0.00,CLR,,0.00,WeatherDisplay:10.37,2013-12-07 10:01:00,
2013-12-07 04:06:00,17.6,9.5,30.43,North,8,0.0,0.0,70,0.00,CLR,,0.00,WeatherDisplay:10.37,2013-12-07 10:06:00,
2013-12-07 04:11:00,17.4,9.3,30.43,North,8,0.0,0.0,70,0.00,CLR,,0.00,WeatherDisplay:10.37,2013-12-07 10:11:00,
2013-12-07 04:16:00,17.4,9.3,30.43,North,8,0.0,0.0,70,0.00,CLR,,0.00,WeatherDisplay:10.37,2013-12-07 10:16:00,
2013-12-07 04:21:00,17.2,9.1,30.43,North,8,0.0,0.0,70,0.00,CLR,,0.00,WeatherDisplay:10.37,2013-12-07 10:21:00,
2013-12-07 04:26:00,17.4,9.3,30.43,North,8,0.0,0.0,70,0.00,CLR,,0.00,WeatherDisplay:10.37,2013-12-07 10:26:00,
2013-12-07 04:31:00,17.2,9.1,30.43,North,8,0.0,0.0,70,0.00,CLR,,0.00,WeatherDisplay:10.37,2013-12-07 10:31:00,
2013-12-07 04:36:00,17.2,9.1,30.43,North,8,0.0,0.0,70,0.00,CLR,,0.00,WeatherDisplay:10.37,2013-12-07 10:36:00,
2013-12-07 04:41:00,17.4,9.3,30.43,North,8,0.0,0.0,70,0.00,CLR,,0.00,WeatherDisplay:10.37,2013-12-07 10:41:00,
2013-12-07 04:46:00,16.9,8.8,30.43,North,8,0.0,0.0,70,0.00,CLR,,0.00,WeatherDisplay:10.37,2013-12-07 10:46:00,
2013-12-07 04:51:00,16.7,8.6,30.43,North,8,0.0,0.0,70,0.00,CLR,,0.00,WeatherDisplay:10.37,2013-12-07 10:51:00,
2013-12-07 04:56:00,16.7,8.6,30.43,North,8,0.0,0.0,70,0.00,CLR,,0.00,WeatherDisplay:10.37,2013-12-07 10:56:00,
2013-12-07 05:01:00,16.5,8.4,30.43,North,8,0.0,0.0,70,0.00,CLR,,0.00,WeatherDisplay:10.37,2013-12-07 11:01:00,
2013-12-07 05:06:00,16.2,8.1,30.43,North,8,0.0,0.0,70,0.00,CLR,,0.00,WeatherDisplay:10.37,2013-12-07 11:06:00,
2013-12-07 05:11:00,16.0,7.9,30.43,North,8,0.0,0.0,70,0.00,CLR,,0.00,WeatherDisplay:10.37,2013-12-07 11:11:00,
2013-12-07 05:16:00,15.8,7.7,30.43,North,8,0.0,0.0,70,0.00,CLR,,0.00,WeatherDisplay:10.37,2013-12-07 11:16:00,
2013-12-07 05:21:00,15.4,7.4,30.43,North,8,0.0,0.0,70,0.00,CLR,,0.00,WeatherDisplay:10.37,2013-12-07 11:21:00,
2013-12-07 05:26:00,15.3,7.2,30.43,North,8,0.0,0.0,70,0.00,CLR,,0.00,WeatherDisplay:10.37,2013-12-07 11:26:00,
2013-12-07 05:31:00,15.3,7.2,30.43,North,8,0.0,0.0,70,0.00,CLR,,0.00,WeatherDisplay:10.37,2013-12-07 11:31:00,
2013-12-07 05:36:00,15.3,7.2,30.43,North,8,0.0,0.0,70,0.00,CLR,,0.00,WeatherDisplay:10.37,2013-12-07 11:36:00,
2013-12-07 05:41:00,15.1,7.1,30.43,North,8,0.0,0.0,70,0.00,CLR,,0.00,WeatherDisplay:10.37,2013-12-07 11:41:00,
2013-12-07 05:46:00,15.1,7.1,30.43,North,8,0.0,0.0,70,0.00,CLR,,0.00,WeatherDisplay:10.37,2013-12-07 11:46:00,
2013-12-07 05:51:00,14.9,6.9,30.43,North,8,0.0,0.0,70,0.00,CLR,,0.00,WeatherDisplay:10.37,2013-12-07 11:51:00,
2013-12-07 05:56:00,14.5,6.5,30.43,North,8,0.0,0.0,70,0.00,CLR,,0.00,WeatherDisplay:10.37,2013-12-07 11:56:00,
2013-12-07 06:01:00,14.5,6.5,30.43,North,8,0.0,0.0,70,0.00,CLR,,0.00,WeatherDisplay:10.37,2013-12-07 12:01:00,
2013-12-07 06:06:00,14.5,6.2,30.43,North,8,0.0,0.0,69,0.00,CLR,,0.00,WeatherDisplay:10.37,2013-12-07 12:06:00,
2013-12-07 06:11:00,14.4,6.0,30.43,North,8,0.0,0.0,69,0.00,CLR,,0.00,WeatherDisplay:10.37,2013-12-07 12:11:00,
2013-12-07 06:16:00,14.4,6.0,30.43,North,8,0.0,0.0,69,0.00,CLR,,0.00,WeatherDisplay:10.37,2013-12-07 12:16:00,
2013-12-07 06:21:00,14.2,5.5,30.43,North,8,0.0,0.0,68,0.00,CLR,,0.00,WeatherDisplay:10.37,2013-12-07 12:21:00,
2013-12-07 06:26:00,13.8,5.2,30.43,North,8,0.0,0.0,68,0.00,CLR,,0.00,WeatherDisplay:10.37,2013-12-07 12:26:00,
2013-12-07 06:31:00,13.8,5.2,30.43,North,8,0.0,0.0,68,0.00,CLR,,0.00,WeatherDisplay:10.37,2013-12-07 12:31:00,
2013-12-07 06:36:00,13.8,5.2,30.43,North,8,0.0,0.0,68,0.00,CLR,,0.00,WeatherDisplay:10.37,2013-12-07 12:36:00,
2013-12-07 06:41:00,13.6,5.0,30.43,North,8,0.0,0.0,68,0.00,CLR,,0.00,WeatherDisplay:10.37,2013-12-07 12:41:00,
2013-12-07 06:46:00,13.5,4.9,30.43,North,8,0.0,0.0,68,0.00,CLR,,0.00,WeatherDisplay:10.37,2013-12-07 12:46:00,
2013-12-07 06:51:00,13.3,4.7,30.43,North,8,0.0,0.0,68,0.00,CLR,,0.00,WeatherDisplay:10.37,2013-12-07 12:51:00,
2013-12-07 06:56:00,13.1,4.5,30.43,North,8,0.0,0.0,68,0.00,CLR,,0.00,WeatherDisplay:10.37,2013-12-07 12:56:00,
2013-12-07 07:01:00,13.3,4.7,30.43,North,8,0.0,0.0,68,0.00,CLR,,0.00,WeatherDisplay:10.37,2013-12-07 13:01:00,
2013-12-07 07:06:00,13.3,4.7,30.43,North,8,0.0,0.0,68,0.00,CLR,,0.00,WeatherDisplay:10.37,2013-12-07 13:06:00,
2013-12-07 07:11:00,12.9,4.3,30.43,North,8,0.0,0.0,68,0.00,CLR,,0.00,WeatherDisplay:10.37,2013-12-07 13:11:00,
2013-12-07 07:16:00,12.9,4.3,30.58,North,8,0.0,0.0,68,0.00,CLR,,0.00,WeatherDisplay:10.37,2013-12-07 13:16:00,
2013-12-07 07:21:00,12.9,4.3,30.58,North,8,0.0,0.0,68,0.00,CLR,,0.00,WeatherDisplay:10.37,2013-12-07 13:21:00,
2013-12-07 07:26:00,12.9,4.3,30.58,North,8,0.0,0.0,68,0.00,CLR,,0.00,WeatherDisplay:10.37,2013-12-07 13:26:00,
2013-12-07 07:31:00,12.9,4.3,30.58,North,8,0.0,0.0,68,0.00,CLR,,0.00,WeatherDisplay:10.37,2013-12-07 13:31:00,
2013-12-07 07:36:00,12.9,4.3,30.58,North,8,0.0,0.0,68,0.00,CLR,,0.00,WeatherDisplay:10.37,2013-12-07 13:36:00,
2013-12-07 07:41:00,12.9,4.3,30.58,North,8,0.0,0.0,68,0.00,CLR,,0.00,WeatherDisplay:10.37,2013-12-07 13:41:00,
2013-12-07 07:46:00,12.9,4.3,30.58,North,8,0.0,0.0,68,0.00,CLR,,0.00,WeatherDisplay:10.37,2013-12-07 13:46:00,
2013-12-07 07:51:00,12.9,4.3,30.58,North,8,0.0,0.0,68,0.00,CLR,,0.00,WeatherDisplay:10.37,2013-12-07 13:51:00,
2013-12-07 07:56:00,12.9,4.3,30.58,North,8,0.0,0.0,68,0.00,CLR,,0.00,WeatherDisplay:10.37,2013-12-07 13:56:00,
2013-12-07 08:01:00,13.1,4.5,30.58,North,8,0.0,0.0,68,0.00,CLR,,0.00,WeatherDisplay:10.37,2013-12-07 14:01:00,
2013-12-07 08:06:00,13.5,4.9,30.58,North,8,0.0,0.0,68,0.00,CLR,,0.00,WeatherDisplay:10.37,2013-12-07 14:06:00,
2013-12-07 08:11:00,14.0,5.1,30.58,North,8,0.0,0.0,67,0.00,CLR,,0.00,WeatherDisplay:10.37,2013-12-07 14:11:00,
2013-12-07 08:16:00,14.4,5.4,30.58,North,8,0.0,0.0,67,0.00,CLR,,0.00,WeatherDisplay:10.37,2013-12-07 14:16:00,
2013-12-07 08:21:00,14.4,5.4,30.58,North,8,0.0,0.0,67,0.00,CLR,,0.00,WeatherDisplay:10.37,2013-12-07 14:21:00,
2013-12-07 08:26:00,14.5,5.6,30.58,North,8,0.0,0.0,67,0.00,CLR,,0.00,WeatherDisplay:10.37,2013-12-07 14:26:00,
2013-12-07 08:31:00,14.5,5.2,30.58,North,8,0.0,0.0,66,0.00,CLR,,0.00,WeatherDisplay:10.37,2013-12-07 14:31:00,
2013-12-07 08:36:00,14.7,5.1,30.58,North,8,0.0,0.0,65,0.00,CLR,,0.00,WeatherDisplay:10.37,2013-12-07 14:36:00,
2013-12-07 08:41:00,15.1,5.4,30.58,North,8,0.0,0.0,65,0.00,CLR,,0.00,WeatherDisplay:10.37,2013-12-07 14:41:00,
2013-12-07 08:46:00,15.3,5.3,30.58,North,8,0.0,0.0,64,0.00,CLR,,0.00,WeatherDisplay:10.37,2013-12-07 14:46:00,
2013-12-07 08:51:00,15.4,5.4,30.61,North,8,0.0,0.0,64,0.00,CLR,,0.00,WeatherDisplay:10.37,2013-12-07 14:51:00,
2013-12-07 08:56:00,15.6,5.2,30.61,North,8,0.0,0.0,63,0.00,CLR,,0.00,WeatherDisplay:10.37,2013-12-07 14:56:00,
2013-12-07 09:01:00,16.2,6.1,30.61,North,8,0.0,0.0,64,0.00,CLR,,0.00,WeatherDisplay:10.37,2013-12-07 15:01:00,
2013-12-07 09:06:00,16.7,6.6,30.61,North,8,0.0,0.0,64,0.00,CLR,,0.00,WeatherDisplay:10.37,2013-12-07 15:06:00,
2013-12-07 09:11:00,16.7,5.9,30.61,North,8,0.0,0.0,62,0.00,CLR,,0.00,WeatherDisplay:10.37,2013-12-07 15:11:00,
2013-12-07 09:16:00,16.9,6.1,30.61,North,8,0.0,0.0,62,0.00,CLR,,0.00,WeatherDisplay:10.37,2013-12-07 15:16:00,
2013-12-07 09:21:00,17.4,6.6,30.61,North,8,0.0,0.0,62,0.00,CLR,,0.00,WeatherDisplay:10.37,2013-12-07 15:21:00,
2013-12-07 09:26:00,17.8,7.0,30.61,North,8,0.0,0.0,62,0.00,CLR,,0.00,WeatherDisplay:10.37,2013-12-07 15:26:00,
2013-12-07 09:31:00,18.3,7.8,30.61,North,8,0.0,0.0,63,0.00,CLR,,0.00,WeatherDisplay:10.37,2013-12-07 15:31:00,
2013-12-07 09:36:00,19.0,8.9,30.61,North,8,0.0,0.0,64,0.00,CLR,,0.00,WeatherDisplay:10.37,2013-12-07 15:36:00,
2013-12-07 09:41:00,19.6,9.4,30.61,North,8,0.0,0.0,64,0.00,CLR,,0.00,WeatherDisplay:10.37,2013-12-07 15:41:00,
2013-12-07 09:46:00,19.2,8.3,30.61,North,8,0.0,0.0,62,0.00,CLR,,0.00,WeatherDisplay:10.37,2013-12-07 15:46:00,
2013-12-07 09:51:00,19.4,8.1,30.61,North,8,0.0,0.0,61,0.00,CLR,,0.00,WeatherDisplay:10.37,2013-12-07 15:51:00,
2013-12-07 09:56:00,19.9,8.6,30.61,North,8,0.0,0.0,61,0.00,CLR,,0.00,WeatherDisplay:10.37,2013-12-07 15:56:00,
2013-12-07 10:01:00,20.5,9.9,30.61,North,8,0.0,0.0,63,0.00,CLR,,0.00,WeatherDisplay:10.37,2013-12-07 16:01:00,
2013-12-07 10:06:00,20.5,9.5,30.61,North,8,0.0,0.0,62,0.00,CLR,,0.00,WeatherDisplay:10.37,2013-12-07 16:06:00,
2013-12-07 10:11:00,20.1,8.4,30.61,North,8,0.0,0.0,60,0.00,CLR,,0.00,WeatherDisplay:10.37,2013-12-07 16:11:00,
2013-12-07 10:16:00,20.1,8.4,30.61,North,8,0.0,0.0,60,0.00,CLR,,0.00,WeatherDisplay:10.37,2013-12-07 16:16:00,
2013-12-07 10:21:00,20.5,8.8,30.61,North,8,0.0,0.0,60,0.00,CLR,,0.00,WeatherDisplay:10.37,2013-12-07 16:21:00,
2013-12-07 10:26:00,20.3,8.6,30.61,North,8,0.0,0.0,60,0.00,CLR,,0.00,WeatherDisplay:10.37,2013-12-07 16:26:00,
2013-12-07 10:31:00,19.6,7.2,30.61,North,8,0.0,0.0,58,0.00,CLR,,0.00,WeatherDisplay:10.37,2013-12-07 16:31:00,
2013-12-07 10:36:00,19.0,5.9,30.61,North,8,0.0,0.0,56,0.00,CLR,,0.00,WeatherDisplay:10.37,2013-12-07 16:36:00,
2013-12-07 10:42:00,19.0,7.0,30.61,North,8,0.0,0.0,59,0.00,CLR,,0.00,WeatherDisplay:10.37,2013-12-07 16:42:00,
2013-12-07 10:47:00,18.9,6.9,30.61,North,8,0.0,0.0,59,0.00,CLR,,0.00,WeatherDisplay:10.37,2013-12-07 16:47:00,
2013-12-07 10:52:00,19.2,7.2,30.61,North,8,0.0,0.0,59,0.00,CLR,,0.00,WeatherDisplay:10.37,2013-12-07 16:52:00,
2013-12-07 10:57:00,19.6,7.6,30.61,North,8,0.0,0.0,59,0.00,CLR,,0.00,WeatherDisplay:10.37,2013-12-07 16:57:00,
2013-12-07 11:02:00,20.3,8.6,30.61,North,8,0.0,0.0,60,0.00,CLR,,0.00,WeatherDisplay:10.37,2013-12-07 17:02:00,
2013-12-07 11:07:00,20.8,9.1,30.61,North,8,0.0,0.0,60,0.00,CLR,,0.00,WeatherDisplay:10.37,2013-12-07 17:07:00,
2013-12-07 11:12:00,20.8,9.1,30.61,North,8,0.0,0.0,60,0.00,CLR,,0.00,WeatherDisplay:10.37,2013-12-07 17:12:00,
2013-12-07 11:17:00,20.5,8.4,30.61,North,8,0.0,0.0,59,0.00,CLR,,0.00,WeatherDisplay:10.37,2013-12-07 17:17:00,
2013-12-07 11:22:00,20.5,8.4,30.58,North,8,0.0,0.0,59,0.00,CLR,,0.00,WeatherDisplay:10.37,2013-12-07 17:22:00,
2013-12-07 11:27:00,20.7,9.0,30.58,North,8,0.0,0.0,60,0.00,CLR,,0.00,WeatherDisplay:10.37,2013-12-07 17:27:00,
2013-12-07 11:32:00,21.0,9.3,30.58,North,8,0.0,0.0,60,0.00,CLR,,0.00,WeatherDisplay:10.37,2013-12-07 17:32:00,
2013-12-07 11:37:00,21.6,9.8,30.58,North,8,0.0,0.0,60,0.00,CLR,,0.00,WeatherDisplay:10.37,2013-12-07 17:37:00,
2013-12-07 11:42:00,21.9,10.5,30.58,North,8,0.0,0.0,61,0.00,CLR,,0.00,WeatherDisplay:10.37,2013-12-07 17:42:00,
2013-12-07 11:47:00,22.1,10.7,30.58,North,8,0.0,0.0,61,0.00,CLR,,0.00,WeatherDisplay:10.37,2013-12-07 17:47:00,
2013-12-07 11:52:00,22.5,11.4,30.58,North,8,0.0,0.0,62,0.00,CLR,,0.00,WeatherDisplay:10.37,2013-12-07 17:52:00,
2013-12-07 11:57:00,22.8,11.7,30.58,North,8,0.0,0.0,62,0.00,CLR,,0.00,WeatherDisplay:10.37,2013-12-07 17:57:00,
2013-12-07 12:02:00,23.2,12.4,30.58,North,8,0.0,0.0,63,0.00,CLR,,0.00,WeatherDisplay:10.37,2013-12-07 18:02:00,
2013-12-07 12:07:00,23.5,12.8,30.58,North,8,0.0,0.0,63,0.00,CLR,,0.00,WeatherDisplay:10.37,2013-12-07 18:07:00,
2013-12-07 12:12:00,23.2,11.7,30.58,North,8,0.0,0.0,61,0.00,CLR,,0.00,WeatherDisplay:10.37,2013-12-07 18:12:00,
2013-12-07 12:17:00,22.8,11.0,30.58,North,8,0.0,0.0,60,0.00,CLR,,0.00,WeatherDisplay:10.37,2013-12-07 18:17:00,
2013-12-07 12:22:00,22.8,11.4,30.55,North,8,0.0,0.0,61,0.00,CLR,,0.00,WeatherDisplay:10.37,2013-12-07 18:22:00,
2013-12-07 12:27:00,22.6,10.8,30.55,North,8,0.0,0.0,60,0.00,CLR,,0.00,WeatherDisplay:10.37,2013-12-07 18:27:00,
2013-12-07 12:32:00,22.1,10.3,30.55,North,8,0.0,0.0,60,0.00,CLR,,0.00,WeatherDisplay:10.37,2013-12-07 18:32:00,
2013-12-07 12:37:00,22.5,11.0,30.55,North,8,0.0,0.0,61,0.00,CLR,,0.00,WeatherDisplay:10.37,2013-12-07 18:37:00,
2013-12-07 12:42:00,22.8,11.7,30.55,North,8,0.0,0.0,62,0.00,CLR,,0.00,WeatherDisplay:10.37,2013-12-07 18:42:00,
2013-12-07 12:47:00,23.0,11.9,30.55,North,8,0.0,0.0,62,0.00,CLR,,0.00,WeatherDisplay:10.37,2013-12-07 18:47:00,
2013-12-07 12:52:00,23.4,12.2,30.55,North,8,0.0,0.0,62,0.00,CLR,,0.00,WeatherDisplay:10.37,2013-12-07 18:52:00,
2013-12-07 12:57:00,23.7,12.6,30.55,North,8,0.0,0.0,62,0.00,CLR,,0.00,WeatherDisplay:10.37,2013-12-07 18:57:00,
2013-12-07 13:02:00,24.3,13.8,30.55,North,8,0.0,0.0,64,0.00,CLR,,0.00,WeatherDisplay:10.37,2013-12-07 19:02:00,
2013-12-07 13:07:00,24.3,13.8,30.55,North,8,0.0,0.0,64,0.00,CLR,,0.00,WeatherDisplay:10.37,2013-12-07 19:07:00,
2013-12-07 13:12:00,24.3,14.2,30.55,North,8,0.0,0.0,65,0.00,CLR,,0.00,WeatherDisplay:10.37,2013-12-07 19:12:00,
2013-12-07 13:17:00,24.4,14.4,30.55,North,8,0.0,0.0,65,0.00,CLR,,0.00,WeatherDisplay:10.37,2013-12-07 19:17:00,
2013-12-07 13:22:00,24.1,13.3,30.55,North,8,0.0,0.0,63,0.00,CLR,,0.00,WeatherDisplay:10.37,2013-12-07 19:22:00,
2013-12-07 13:27:00,24.1,12.9,30.55,North,8,0.0,0.0,62,0.00,CLR,,0.00,WeatherDisplay:10.37,2013-12-07 19:27:00,
2013-12-07 13:32:00,24.6,13.8,30.55,North,8,0.0,0.0,63,0.00,CLR,,0.00,WeatherDisplay:10.37,2013-12-07 19:32:00,
2013-12-07 13:37:00,25.2,14.7,30.55,North,8,0.0,0.0,64,0.00,CLR,,0.00,WeatherDisplay:10.37,2013-12-07 19:37:00,
2013-12-07 13:42:00,25.2,15.0,30.55,North,8,0.0,0.0,65,0.00,CLR,,0.00,WeatherDisplay:10.37,2013-12-07 19:42:00,
2013-12-07 13:47:00,24.6,14.2,30.55,North,8,0.0,0.0,64,0.00,CLR,,0.00,WeatherDisplay:10.37,2013-12-07 19:47:00,
2013-12-07 13:52:00,24.4,13.6,30.55,North,8,0.0,0.0,63,0.00,CLR,,0.00,WeatherDisplay:10.37,2013-12-07 19:52:00,
2013-12-07 13:57:00,24.4,14.0,30.55,North,8,0.0,0.0,64,0.00,CLR,,0.00,WeatherDisplay:10.37,2013-12-07 19:57:00,
2013-12-07 14:02:00,24.4,14.4,30.49,North,8,0.0,0.0,65,0.00,CLR,,0.00,WeatherDisplay:10.37,2013-12-07 20:02:00,
2013-12-07 14:07:00,24.4,14.0,30.49,North,8,0.0,0.0,64,0.00,CLR,,0.00,WeatherDisplay:10.37,2013-12-07 20:07:00,
2013-12-07 14:12:00,24.3,13.8,30.49,North,8,0.0,0.0,64,0.00,CLR,,0.00,WeatherDisplay:10.37,2013-12-07 20:12:00,
2013-12-07 14:17:00,24.3,13.8,30.49,North,8,0.0,0.0,64,0.00,CLR,,0.00,WeatherDisplay:10.37,2013-12-07 20:17:00,
2013-12-07 14:22:00,24.3,13.8,30.49,North,8,0.0,0.0,64,0.00,CLR,,0.00,WeatherDisplay:10.37,2013-12-07 20:22:00,
2013-12-07 14:27:00,24.4,14.4,30.49,North,8,0.0,0.0,65,0.00,CLR,,0.00,WeatherDisplay:10.37,2013-12-07 20:27:00,
2013-12-07 14:32:00,24.4,14.4,30.49,North,8,0.0,0.0,65,0.00,CLR,,0.00,WeatherDisplay:10.37,2013-12-07 20:32:00,
2013-12-07 14:37:00,24.4,14.0,30.49,North,8,0.0,0.0,64,0.00,CLR,,0.00,WeatherDisplay:10.37,2013-12-07 20:37:00,
2013-12-07 14:42:00,25.0,15.2,30.49,North,8,0.0,0.0,66,0.00,CLR,,0.00,WeatherDisplay:10.37,2013-12-07 20:42:00,
2013-12-07 14:47:00,25.2,15.4,30.49,North,8,0.0,0.0,66,0.00,CLR,,0.00,WeatherDisplay:10.37,2013-12-07 20:47:00,
2013-12-07 14:52:00,24.6,13.8,30.49,North,8,0.0,0.0,63,0.00,CLR,,0.00,WeatherDisplay:10.37,2013-12-07 20:52:00,
2013-12-07 14:57:00,24.4,13.6,30.49,North,8,0.0,0.0,63,0.00,CLR,,0.00,WeatherDisplay:10.37,2013-12-07 20:57:00,
2013-12-07 15:02:00,24.4,14.0,30.49,North,8,0.0,0.0,64,0.00,CLR,,0.00,WeatherDisplay:10.37,2013-12-07 21:02:00,
2013-12-07 15:07:00,24.1,12.9,30.49,North,8,0.0,0.0,62,0.00,CLR,,0.00,WeatherDisplay:10.37,2013-12-07 21:07:00,
2013-12-07 15:12:00,24.1,13.3,30.49,North,8,0.0,0.0,63,0.00,CLR,,0.00,WeatherDisplay:10.37,2013-12-07 21:12:00,
2013-12-07 15:17:00,24.1,13.3,30.49,North,8,0.0,0.0,63,0.00,CLR,,0.00,WeatherDisplay:10.37,2013-12-07 21:17:00,
2013-12-07 15:22:00,23.9,13.1,30.49,North,8,0.0,0.0,63,0.00,CLR,,0.00,WeatherDisplay:10.37,2013-12-07 21:22:00,
2013-12-07 15:27:00,23.7,13.0,30.49,North,8,0.0,0.0,63,0.00,CLR,,0.00,WeatherDisplay:10.37,2013-12-07 21:27:00,
2013-12-07 15:32:00,23.7,13.0,30.46,North,8,0.0,0.0,63,0.00,CLR,,0.00,WeatherDisplay:10.37,2013-12-07 21:32:00,
2013-12-07 15:37:00,23.7,13.3,30.46,North,8,0.0,0.0,64,0.00,CLR,,0.00,WeatherDisplay:10.37,2013-12-07 21:37:00,
2013-12-07 15:42:00,23.7,13.0,30.46,North,8,0.0,0.0,63,0.00,CLR,,0.00,WeatherDisplay:10.37,2013-12-07 21:42:00,
2013-12-07 15:47:00,23.2,11.0,30.46,North,8,0.0,0.0,59,0.00,CLR,,0.00,WeatherDisplay:10.37,2013-12-07 21:47:00,
2013-12-07 15:52:00,22.8,11.0,30.46,North,8,0.0,0.0,60,0.00,CLR,,0.00,WeatherDisplay:10.37,2013-12-07 21:52:00,
2013-12-07 15:57:00,22.8,11.0,30.46,North,8,0.0,0.0,60,0.00,CLR,,0.00,WeatherDisplay:10.37,2013-12-07 21:57:00,
2013-12-07 16:02:00,22.6,11.2,30.46,North,8,0.0,0.0,61,0.00,CLR,,0.00,WeatherDisplay:10.37,2013-12-07 22:02:00,
2013-12-07 16:07:00,22.6,11.6,30.46,North,8,0.0,0.0,62,0.00,CLR,,0.00,WeatherDisplay:10.37,2013-12-07 22:07:00,
2013-12-07 16:12:00,22.6,11.6,30.46,North,8,0.0,0.0,62,0.00,CLR,,0.00,WeatherDisplay:10.37,2013-12-07 22:12:00,
2013-12-07 16:17:00,22.5,11.4,30.46,North,8,0.0,0.0,62,0.00,CLR,,0.00,WeatherDisplay:10.37,2013-12-07 22:17:00,
2013-12-07 16:22:00,22.3,11.2,30.46,North,8,0.0,0.0,62,0.00,CLR,,0.00,WeatherDisplay:10.37,2013-12-07 22:22:00,
2013-12-07 16:27:00,22.1,11.1,30.46,North,8,0.0,0.0,62,0.00,CLR,,0.00,WeatherDisplay:10.37,2013-12-07 22:27:00,
2013-12-07 16:32:00,21.9,10.9,30.46,North,8,0.0,0.0,62,0.00,CLR,,0.00,WeatherDisplay:10.37,2013-12-07 22:32:00,
2013-12-07 16:37:00,21.9,10.9,30.46,North,8,0.0,0.0,62,0.00,CLR,,0.00,WeatherDisplay:10.37,2013-12-07 22:37:00,
2013-12-07 16:43:00,21.9,11.2,30.46,North,8,0.0,0.0,63,0.00,CLR,,0.00,WeatherDisplay:10.37,2013-12-07 22:43:00,
2013-12-07 16:48:00,21.7,11.1,30.43,North,8,0.0,0.0,63,0.00,CLR,,0.00,WeatherDisplay:10.37,2013-12-07 22:48:00,
2013-12-07 16:53:00,21.7,11.4,30.43,North,8,0.0,0.0,64,0.00,CLR,,0.00,WeatherDisplay:10.37,2013-12-07 22:53:00,
2013-12-07 16:58:00,21.6,11.3,30.43,North,8,0.0,0.0,64,0.00,CLR,,0.00,WeatherDisplay:10.37,2013-12-07 22:58:00,
2013-12-07 17:03:00,21.6,11.6,30.43,North,8,0.0,0.0,65,0.00,CLR,,0.00,WeatherDisplay:10.37,2013-12-07 23:03:00,
2013-12-07 17:08:00,21.6,11.6,30.43,North,8,0.0,0.0,65,0.00,CLR,,0.00,WeatherDisplay:10.37,2013-12-07 23:08:00,
2013-12-07 17:13:00,21.7,12.1,30.43,North,8,0.0,0.0,66,0.00,CLR,,0.00,WeatherDisplay:10.37,2013-12-07 23:13:00,
2013-12-07 17:18:00,21.6,12.3,30.43,North,8,0.0,0.0,67,0.00,CLR,,0.00,WeatherDisplay:10.37,2013-12-07 23:18:00,
2013-12-07 17:23:00,21.7,12.5,30.43,North,8,0.0,0.0,67,0.00,CLR,,0.00,WeatherDisplay:10.37,2013-12-07 23:23:00,
2013-12-07 17:28:00,21.7,12.8,30.43,North,8,0.0,0.0,68,0.00,CLR,,0.00,WeatherDisplay:10.37,2013-12-07 23:28:00,
2013-12-07 17:33:00,21.7,12.8,30.43,North,8,0.0,0.0,68,0.00,CLR,,0.00,WeatherDisplay:10.37,2013-12-07 23:33:00,
2013-12-07 17:38:00,21.9,13.0,30.43,North,8,0.0,0.0,68,0.00,CLR,,0.00,WeatherDisplay:10.37,2013-12-07 23:38:00,
2013-12-07 17:43:00,21.9,13.0,30.43,North,8,0.0,0.0,68,0.00,CLR,,0.00,WeatherDisplay:10.37,2013-12-07 23:43:00,
2013-12-07 17:48:00,21.9,13.0,30.43,North,8,0.0,0.0,68,0.00,CLR,,0.00,WeatherDisplay:10.37,2013-12-07 23:48:00,
2013-12-07 17:53:00,21.9,13.0,30.43,North,8,0.0,0.0,68,0.00,CLR,,0.00,WeatherDisplay:10.37,2013-12-07 23:53:00,
2013-12-07 17:58:00,21.9,13.0,30.43,North,8,0.0,0.0,68,0.00,CLR,,0.00,WeatherDisplay:10.37,2013-12-07 23:58:00,
2013-12-07 18:03:00,22.1,13.5,30.43,North,8,0.0,0.0,69,0.00,CLR,,0.00,WeatherDisplay:10.37,2013-12-08 00:03:00,
2013-12-07 18:08:00,21.9,13.3,30.43,North,8,0.0,0.0,69,0.00,CLR,,0.00,WeatherDisplay:10.37,2013-12-08 00:08:00,
2013-12-07 18:13:00,21.9,13.3,30.43,North,8,0.0,0.0,69,0.00,CLR,,0.00,WeatherDisplay:10.37,2013-12-08 00:13:00,
2013-12-07 18:18:00,21.9,13.3,30.43,North,8,0.0,0.0,69,0.00,CLR,,0.00,WeatherDisplay:10.37,2013-12-08 00:18:00,
2013-12-07 18:23:00,21.9,13.3,30.43,North,8,0.0,0.0,69,0.00,CLR,,0.00,WeatherDisplay:10.37,2013-12-08 00:23:00,
2013-12-07 18:28:00,22.1,13.5,30.43,North,8,0.0,0.0,69,0.00,CLR,,0.00,WeatherDisplay:10.37,2013-12-08 00:28:00,
2013-12-07 18:33:00,22.1,13.5,30.43,North,8,0.0,0.0,69,0.00,CLR,,0.00,WeatherDisplay:10.37,2013-12-08 00:33:00,
2013-12-07 18:38:00,22.1,13.5,30.43,North,8,0.0,0.0,69,0.00,CLR,,0.00,WeatherDisplay:10.37,2013-12-08 00:38:00,
2013-12-07 18:43:00,22.1,13.5,30.43,North,8,0.0,0.0,69,0.00,CLR,,0.00,WeatherDisplay:10.37,2013-12-08 00:43:00,
2013-12-07 18:48:00,22.1,13.5,30.43,North,8,0.0,0.0,69,0.00,CLR,,0.00,WeatherDisplay:10.37,2013-12-08 00:48:00,
2013-12-07 18:53:00,22.3,13.6,30.43,North,8,0.0,0.0,69,0.00,CLR,,0.00,WeatherDisplay:10.37,2013-12-08 00:53:00,
2013-12-07 18:58:00,22.3,13.6,30.43,North,8,0.0,0.0,69,0.00,CLR,,0.00,WeatherDisplay:10.37,2013-12-08 00:58:00,
2013-12-07 19:03:00,22.5,13.8,30.43,North,8,0.0,0.0,69,0.00,CLR,,0.00,WeatherDisplay:10.37,2013-12-08 01:03:00,
2013-12-07 19:08:00,22.5,13.8,30.43,North,8,0.0,0.0,69,0.00,CLR,,0.00,WeatherDisplay:10.37,2013-12-08 01:08:00,
2013-12-07 19:13:00,22.6,14.3,30.43,North,8,0.0,0.0,70,0.00,CLR,,0.00,WeatherDisplay:10.37,2013-12-08 01:13:00,
2013-12-07 19:18:00,22.6,14.0,30.43,North,8,0.0,0.0,69,0.00,CLR,,0.00,WeatherDisplay:10.37,2013-12-08 01:18:00,
2013-12-07 19:23:00,22.5,13.8,30.43,North,8,0.0,0.0,69,0.00,CLR,,0.00,WeatherDisplay:10.37,2013-12-08 01:23:00,
2013-12-07 19:28:00,22.5,13.8,30.43,North,8,0.0,0.0,69,0.00,CLR,,0.00,WeatherDisplay:10.37,2013-12-08 01:28:00,
2013-12-07 19:33:00,22.3,13.6,30.43,North,8,0.0,0.0,69,0.00,CLR,,0.00,WeatherDisplay:10.37,2013-12-08 01:33:00,
2013-12-07 19:38:00,22.1,13.5,30.43,North,8,0.0,0.0,69,0.00,CLR,,0.00,WeatherDisplay:10.37,2013-12-08 01:38:00,
2013-12-07 19:43:00,21.9,13.0,30.43,North,8,0.0,0.0,68,0.00,CLR,,0.00,WeatherDisplay:10.37,2013-12-08 01:43:00,
2013-12-07 19:48:00,21.9,13.0,30.43,North,8,0.0,0.0,68,0.00,CLR,,0.00,WeatherDisplay:10.37,2013-12-08 01:48:00,
2013-12-07 19:53:00,21.9,13.0,30.43,North,8,0.0,0.0,68,0.00,CLR,,0.00,WeatherDisplay:10.37,2013-12-08 01:53:00,
2013-12-07 19:58:00,21.7,12.8,30.43,North,8,0.0,0.0,68,0.00,CLR,,0.00,WeatherDisplay:10.37,2013-12-08 01:58:00,
2013-12-07 20:03:00,21.4,10.7,30.40,North,8,0.0,0.0,63,0.00,CLR,,0.00,WeatherDisplay:10.37,2013-12-08 02:03:00,
2013-12-07 20:08:00,21.0,10.0,30.40,North,8,0.0,0.0,62,0.00,CLR,,0.00,WeatherDisplay:10.37,2013-12-08 02:08:00,
2013-12-07 20:13:00,21.0,10.0,30.40,North,8,0.0,0.0,62,0.00,CLR,,0.00,WeatherDisplay:10.37,2013-12-08 02:13:00,
2013-12-07 20:18:00,20.8,9.9,30.43,North,8,0.0,0.0,62,0.00,CLR,,0.00,WeatherDisplay:10.37,2013-12-08 02:18:00,
2013-12-07 20:23:00,20.7,9.7,30.43,North,8,0.0,0.0,62,0.00,CLR,,0.00,WeatherDisplay:10.37,2013-12-08 02:23:00,
2013-12-07 20:28:00,20.7,9.7,30.43,North,8,0.0,0.0,62,0.00,CLR,,0.00,WeatherDisplay:10.37,2013-12-08 02:28:00,
2013-12-07 20:33:00,20.3,8.6,30.40,North,8,0.0,0.0,60,0.00,CLR,,0.00,WeatherDisplay:10.37,2013-12-08 02:33:00,
2013-12-07 20:38:00,20.1,8.4,30.40,North,8,0.0,0.0,60,0.00,CLR,,0.00,WeatherDisplay:10.37,2013-12-08 02:38:00,
2013-12-07 20:43:00,19.9,8.3,30.40,North,8,0.0,0.0,60,0.00,CLR,,0.00,WeatherDisplay:10.37,2013-12-08 02:43:00,
2013-12-07 20:48:00,19.8,8.1,30.40,North,8,0.0,0.0,60,0.00,CLR,,0.00,WeatherDisplay:10.37,2013-12-08 02:48:00,
2013-12-07 20:53:00,19.8,8.1,30.40,North,8,0.0,0.0,60,0.00,CLR,,0.00,WeatherDisplay:10.37,2013-12-08 02:53:00,
2013-12-07 20:58:00,19.8,8.1,30.40,North,8,0.0,0.0,60,0.00,CLR,,0.00,WeatherDisplay:10.37,2013-12-08 02:58:00,
2013-12-07 21:03:00,19.8,8.1,30.40,North,8,0.0,0.0,60,0.00,CLR,,0.00,WeatherDisplay:10.37,2013-12-08 03:03:00,
2013-12-07 21:08:00,19.6,7.9,30.40,North,8,0.0,0.0,60,0.00,CLR,,0.00,WeatherDisplay:10.37,2013-12-08 03:08:00,
2013-12-07 21:13:00,19.6,7.9,30.40,North,8,0.0,0.0,60,0.00,CLR,,0.00,WeatherDisplay:10.37,2013-12-08 03:13:00,
2013-12-07 21:18:00,19.6,8.3,30.40,North,8,0.0,0.0,61,0.00,CLR,,0.00,WeatherDisplay:10.37,2013-12-08 03:18:00,
2013-12-07 21:23:00,19.8,8.5,30.40,North,8,0.0,0.0,61,0.00,CLR,,0.00,WeatherDisplay:10.37,2013-12-08 03:23:00,
2013-12-07 21:28:00,19.6,8.3,30.40,North,8,0.0,0.0,61,0.00,CLR,,0.00,WeatherDisplay:10.37,2013-12-08 03:28:00,
2013-12-07 21:33:00,19.8,8.8,30.40,North,8,0.0,0.0,62,0.00,CLR,,0.00,WeatherDisplay:10.37,2013-12-08 03:33:00,
2013-12-07 21:38:00,19.8,8.8,30.40,North,8,0.0,0.0,62,0.00,CLR,,0.00,WeatherDisplay:10.37,2013-12-08 03:38:00,
2013-12-07 21:43:00,19.8,8.8,30.40,North,8,0.0,0.0,62,0.00,CLR,,0.00,WeatherDisplay:10.37,2013-12-08 03:43:00,
2013-12-07 21:48:00,19.8,8.8,30.37,North,8,0.0,0.0,62,0.00,CLR,,0.00,WeatherDisplay:10.37,2013-12-08 03:48:00,
2013-12-07 21:53:00,19.8,8.5,30.37,North,8,0.0,0.0,61,0.00,CLR,,0.00,WeatherDisplay:10.37,2013-12-08 03:53:00,
2013-12-07 21:58:00,19.6,8.3,30.37,North,8,0.0,0.0,61,0.00,CLR,,0.00,WeatherDisplay:10.37,2013-12-08 03:58:00,
2013-12-07 22:03:00,19.6,8.7,30.37,North,8,0.0,0.0,62,0.00,CLR,,0.00,WeatherDisplay:10.37,2013-12-08 04:03:00,
2013-12-07 22:08:00,19.6,8.7,30.37,North,8,0.0,0.0,62,0.00,CLR,,0.00,WeatherDisplay:10.37,2013-12-08 04:08:00,
2013-12-07 22:13:00,19.6,8.7,30.37,North,8,0.0,0.0,62,0.00,CLR,,0.00,WeatherDisplay:10.37,2013-12-08 04:13:00,
2013-12-07 22:18:00,19.6,8.7,30.37,North,8,0.0,0.0,62,0.00,CLR,,0.00,WeatherDisplay:10.37,2013-12-08 04:18:00,
2013-12-07 22:23:00,19.6,8.7,30.37,North,8,0.0,0.0,62,0.00,CLR,,0.00,WeatherDisplay:10.37,2013-12-08 04:23:00,
2013-12-07 22:28:00,19.8,8.8,30.37,North,8,0.0,0.0,62,0.00,CLR,,0.00,WeatherDisplay:10.37,2013-12-08 04:28:00,
2013-12-07 22:33:00,19.8,8.8,30.40,North,8,0.0,0.0,62,0.00,CLR,,0.00,WeatherDisplay:10.37,2013-12-08 04:33:00,
2013-12-07 22:38:00,19.8,9.2,30.40,North,8,0.0,0.0,63,0.00,CLR,,0.00,WeatherDisplay:10.37,2013-12-08 04:38:00,
2013-12-07 22:43:00,19.8,9.2,30.40,North,8,0.0,0.0,63,0.00,CLR,,0.00,WeatherDisplay:10.37,2013-12-08 04:43:00,
2013-12-07 22:48:00,19.8,9.2,30.37,North,8,0.0,0.0,63,0.00,CLR,,0.00,WeatherDisplay:10.37,2013-12-08 04:48:00,
2013-12-07 22:53:00,19.8,9.2,30.37,North,8,0.0,0.0,63,0.00,CLR,,0.00,WeatherDisplay:10.37,2013-12-08 04:53:00,
2013-12-07 22:58:00,19.8,9.2,30.37,North,8,0.0,0.0,63,0.00,CLR,,0.00,WeatherDisplay:10.37,2013-12-08 04:58:00,
2013-12-07 23:01:00,19.8,9.2,30.37,North,8,0.0,0.0,63,0.00,CLR,,0.00,WeatherDisplay:10.37,2013-12-08 05:01:00,
2013-12-07 23:02:00,19.9,9.4,30.37,North,8,0.0,0.0,63,0.00,CLR,,0.00,WeatherDisplay:10.37,2013-12-08 05:02:00,
2013-12-07 23:03:00,19.9,9.4,30.37,North,8,0.0,0.0,63,0.00,CLR,,0.00,WeatherDisplay:10.37,2013-12-08 05:03:00,
2013-12-07 23:04:00,19.9,9.4,30.37,North,8,0.0,0.0,63,0.00,CLR,,0.00,WeatherDisplay:10.37,2013-12-08 05:04:00,
2013-12-07 23:09:00,19.9,9.4,30.37,North,8,0.0,0.0,63,0.00,CLR,,0.00,WeatherDisplay:10.37,2013-12-08 05:09:00,
2013-12-07 23:14:00,19.8,8.8,30.37,North,8,0.0,0.0,62,0.00,CLR,,0.00,WeatherDisplay:10.37,2013-12-08 05:14:00,
2013-12-07 23:19:00,19.8,8.5,30.34,North,8,0.0,0.0,61,0.00,CLR,,0.00,WeatherDisplay:10.37,2013-12-08 05:19:00,
2013-12-07 23:24:00,19.8,8.8,30.34,North,8,0.0,0.0,62,0.00,CLR,,0.00,WeatherDisplay:10.37,2013-12-08 05:24:00,
2013-12-07 23:29:00,19.8,8.8,30.34,North,8,0.0,0.0,62,0.00,CLR,,0.00,WeatherDisplay:10.37,2013-12-08 05:29:00,
2013-12-07 23:34:00,19.8,8.8,30.37,North,8,0.0,0.0,62,0.00,CLR,,0.00,WeatherDisplay:10.37,2013-12-08 05:34:00,
2013-12-07 23:39:00,19.9,9.4,30.37,North,8,0.0,0.0,63,0.00,CLR,,0.00,WeatherDisplay:10.37,2013-12-08 05:39:00,
2013-12-07 23:44:00,19.8,9.2,30.37,North,8,0.0,0.0,63,0.00,CLR,,0.00,WeatherDisplay:10.37,2013-12-08 05:44:00,
2013-12-07 23:49:00,19.8,8.8,30.34,North,8,0.0,0.0,62,0.00,CLR,,0.00,WeatherDisplay:10.37,2013-12-08 05:49:00,
2013-12-07 23:54:00,19.8,8.8,30.34,North,8,0.0,0.0,62,0.00,CLR,,0.00,WeatherDisplay:10.37,2013-12-08 05:54:00,
2013-12-07 23:59:00,19.8,8.8,30.34,North,8,0.0,0.0,62,0.00,CLR,,0.00,WeatherDisplay:10.37,2013-12-08 05:59:00,